sensor_id;sensor_type;location;lat;lon;timestamp;temperature;humidity
59128;DHT22;44912;52.754;5.994;2022-07-15T00:02:14;12.70;99.90
59128;DHT22;44912;52.754;5.994;2022-07-15T00:04:40;12.70;99.90
59128;DHT22;44912;52.754;5.994;2022-07-15T00:07:05;12.80;99.90
59128;DHT22;44912;52.754;5.994;2022-07-15T00:09:32;12.80;99.90
59128;DHT22;44912;52.754;5.994;2022-07-15T00:12:16;12.80;99.90
59128;DHT22;44912;52.754;5.994;2022-07-15T00:14:42;12.90;99.90
59128;DHT22;44912;52.754;5.994;2022-07-15T00:17:07;12.90;99.90
59128;DHT22;44912;52.754;5.994;2022-07-15T00:19:34;13.00;99.90
59128;DHT22;44912;52.754;5.994;2022-07-15T00:22:00;13.00;99.90
59128;DHT22;44912;52.754;5.994;2022-07-15T00:24:25;13.10;99.90
59128;DHT22;44912;52.754;5.994;2022-07-15T00:26:51;13.20;99.90
59128;DHT22;44912;52.754;5.994;2022-07-15T00:29:17;13.20;99.90
59128;DHT22;44912;52.754;5.994;2022-07-15T00:31:42;13.20;99.90
59128;DHT22;44912;52.754;5.994;2022-07-15T00:34:08;13.10;99.90
59128;DHT22;44912;52.754;5.994;2022-07-15T00:36:33;13.20;99.90
59128;DHT22;44912;52.754;5.994;2022-07-15T00:38:59;13.20;99.90
59128;DHT22;44912;52.754;5.994;2022-07-15T00:41:25;13.20;99.90
59128;DHT22;44912;52.754;5.994;2022-07-15T00:43:50;13.20;99.90
59128;DHT22;44912;52.754;5.994;2022-07-15T00:46:20;13.30;99.90
59128;DHT22;44912;52.754;5.994;2022-07-15T00:48:46;13.30;99.90
59128;DHT22;44912;52.754;5.994;2022-07-15T00:51:12;13.30;99.90
59128;DHT22;44912;52.754;5.994;2022-07-15T00:53:39;13.40;99.90
59128;DHT22;44912;52.754;5.994;2022-07-15T00:56:08;13.50;99.90
59128;DHT22;44912;52.754;5.994;2022-07-15T00:58:37;13.50;99.90
59128;DHT22;44912;52.754;5.994;2022-07-15T01:01:05;13.60;99.90
59128;DHT22;44912;52.754;5.994;2022-07-15T01:03:31;13.60;99.90
59128;DHT22;44912;52.754;5.994;2022-07-15T01:05:58;13.60;99.90
59128;DHT22;44912;52.754;5.994;2022-07-15T01:08:24;13.60;99.90
59128;DHT22;44912;52.754;5.994;2022-07-15T01:10:51;13.60;99.90
59128;DHT22;44912;52.754;5.994;2022-07-15T01:13:18;13.60;99.90
59128;DHT22;44912;52.754;5.994;2022-07-15T01:15:44;13.50;99.90
59128;DHT22;44912;52.754;5.994;2022-07-15T01:18:10;13.50;99.90
59128;DHT22;44912;52.754;5.994;2022-07-15T01:20:40;13.60;99.90
59128;DHT22;44912;52.754;5.994;2022-07-15T01:23:05;13.60;99.90
59128;DHT22;44912;52.754;5.994;2022-07-15T01:25:31;13.60;99.90
59128;DHT22;44912;52.754;5.994;2022-07-15T01:27:58;13.70;99.90
59128;DHT22;44912;52.754;5.994;2022-07-15T01:30:23;13.70;99.90
59128;DHT22;44912;52.754;5.994;2022-07-15T01:32:49;13.70;99.90
59128;DHT22;44912;52.754;5.994;2022-07-15T01:35:16;13.80;99.90
59128;DHT22;44912;52.754;5.994;2022-07-15T01:37:41;13.80;99.90
59128;DHT22;44912;52.754;5.994;2022-07-15T01:40:13;13.80;99.90
59128;DHT22;44912;52.754;5.994;2022-07-15T01:42:39;13.90;99.90
59128;DHT22;44912;52.754;5.994;2022-07-15T01:45:11;13.90;99.90
59128;DHT22;44912;52.754;5.994;2022-07-15T01:47:48;13.80;99.90
59128;DHT22;44912;52.754;5.994;2022-07-15T01:50:17;13.90;99.90
59128;DHT22;44912;52.754;5.994;2022-07-15T01:52:42;13.80;99.90
59128;DHT22;44912;52.754;5.994;2022-07-15T01:55:08;13.80;99.90
59128;DHT22;44912;52.754;5.994;2022-07-15T01:57:35;13.70;99.90
59128;DHT22;44912;52.754;5.994;2022-07-15T02:00:01;13.70;99.90
59128;DHT22;44912;52.754;5.994;2022-07-15T02:02:26;13.60;99.90
59128;DHT22;44912;52.754;5.994;2022-07-15T02:04:52;13.50;99.90
59128;DHT22;44912;52.754;5.994;2022-07-15T02:07:18;13.50;99.90
59128;DHT22;44912;52.754;5.994;2022-07-15T02:09:43;13.50;99.90
59128;DHT22;44912;52.754;5.994;2022-07-15T02:12:09;13.60;99.90
59128;DHT22;44912;52.754;5.994;2022-07-15T02:14:35;13.50;99.90
59128;DHT22;44912;52.754;5.994;2022-07-15T02:17:01;13.50;99.90
59128;DHT22;44912;52.754;5.994;2022-07-15T02:19:27;13.50;99.90
59128;DHT22;44912;52.754;5.994;2022-07-15T02:21:53;13.50;99.90
59128;DHT22;44912;52.754;5.994;2022-07-15T02:24:19;13.50;99.90
59128;DHT22;44912;52.754;5.994;2022-07-15T02:26:45;13.40;99.90
59128;DHT22;44912;52.754;5.994;2022-07-15T02:29:11;13.40;99.90
59128;DHT22;44912;52.754;5.994;2022-07-15T02:31:37;13.40;99.90
59128;DHT22;44912;52.754;5.994;2022-07-15T02:34:03;13.30;99.90
59128;DHT22;44912;52.754;5.994;2022-07-15T02:36:28;13.20;99.90
59128;DHT22;44912;52.754;5.994;2022-07-15T02:38:54;13.20;99.90
59128;DHT22;44912;52.754;5.994;2022-07-15T02:41:20;13.10;99.90
59128;DHT22;44912;52.754;5.994;2022-07-15T02:43:46;13.00;99.90
59128;DHT22;44912;52.754;5.994;2022-07-15T02:46:11;13.00;99.90
59128;DHT22;44912;52.754;5.994;2022-07-15T02:48:38;13.00;99.90
59128;DHT22;44912;52.754;5.994;2022-07-15T02:51:04;12.90;99.90
59128;DHT22;44912;52.754;5.994;2022-07-15T02:53:29;12.90;99.90
59128;DHT22;44912;52.754;5.994;2022-07-15T02:55:57;12.80;99.90
59128;DHT22;44912;52.754;5.994;2022-07-15T02:58:29;12.70;99.90
59128;DHT22;44912;52.754;5.994;2022-07-15T03:00:57;12.50;99.90
59128;DHT22;44912;52.754;5.994;2022-07-15T03:03:23;12.40;99.90
59128;DHT22;44912;52.754;5.994;2022-07-15T03:05:49;12.30;99.90
59128;DHT22;44912;52.754;5.994;2022-07-15T03:08:15;12.30;99.90
59128;DHT22;44912;52.754;5.994;2022-07-15T03:10:41;12.20;99.90
59128;DHT22;44912;52.754;5.994;2022-07-15T03:13:07;12.30;99.90
59128;DHT22;44912;52.754;5.994;2022-07-15T03:15:33;12.30;99.90
59128;DHT22;44912;52.754;5.994;2022-07-15T03:17:59;12.30;99.90
59128;DHT22;44912;52.754;5.994;2022-07-15T03:20:25;12.30;99.90
59128;DHT22;44912;52.754;5.994;2022-07-15T03:22:50;12.30;99.90
59128;DHT22;44912;52.754;5.994;2022-07-15T03:25:16;12.40;99.90
59128;DHT22;44912;52.754;5.994;2022-07-15T03:27:41;12.40;99.90
59128;DHT22;44912;52.754;5.994;2022-07-15T03:30:07;12.30;99.90
59128;DHT22;44912;52.754;5.994;2022-07-15T03:32:33;12.20;99.90
59128;DHT22;44912;52.754;5.994;2022-07-15T03:34:58;12.20;99.90
59128;DHT22;44912;52.754;5.994;2022-07-15T03:37:24;12.10;99.90
59128;DHT22;44912;52.754;5.994;2022-07-15T03:39:50;12.10;99.90
59128;DHT22;44912;52.754;5.994;2022-07-15T03:42:16;12.00;99.90
59128;DHT22;44912;52.754;5.994;2022-07-15T03:44:41;12.00;99.90
59128;DHT22;44912;52.754;5.994;2022-07-15T03:47:07;11.90;99.90
59128;DHT22;44912;52.754;5.994;2022-07-15T03:49:33;11.90;99.90
59128;DHT22;44912;52.754;5.994;2022-07-15T03:51:58;11.90;99.90
59128;DHT22;44912;52.754;5.994;2022-07-15T03:54:24;11.90;99.90
59128;DHT22;44912;52.754;5.994;2022-07-15T03:56:50;11.90;99.90
59128;DHT22;44912;52.754;5.994;2022-07-15T03:59:17;11.90;99.90
59128;DHT22;44912;52.754;5.994;2022-07-15T04:01:43;12.00;99.90
59128;DHT22;44912;52.754;5.994;2022-07-15T04:04:09;12.00;99.90
59128;DHT22;44912;52.754;5.994;2022-07-15T04:06:34;12.00;99.90
59128;DHT22;44912;52.754;5.994;2022-07-15T04:09:01;12.00;99.90
59128;DHT22;44912;52.754;5.994;2022-07-15T04:11:26;12.00;99.90
59128;DHT22;44912;52.754;5.994;2022-07-15T04:13:52;12.00;99.90
59128;DHT22;44912;52.754;5.994;2022-07-15T04:16:18;12.00;99.90
59128;DHT22;44912;52.754;5.994;2022-07-15T04:18:43;12.10;99.90
59128;DHT22;44912;52.754;5.994;2022-07-15T04:21:09;12.10;99.90
59128;DHT22;44912;52.754;5.994;2022-07-15T04:23:36;12.10;99.90
59128;DHT22;44912;52.754;5.994;2022-07-15T04:26:02;12.10;99.90
59128;DHT22;44912;52.754;5.994;2022-07-15T04:28:28;12.00;99.90
59128;DHT22;44912;52.754;5.994;2022-07-15T04:30:53;12.00;99.90
59128;DHT22;44912;52.754;5.994;2022-07-15T04:33:19;12.10;99.90
59128;DHT22;44912;52.754;5.994;2022-07-15T04:35:46;12.20;99.90
59128;DHT22;44912;52.754;5.994;2022-07-15T04:38:12;12.20;99.90
59128;DHT22;44912;52.754;5.994;2022-07-15T04:40:38;12.20;99.90
59128;DHT22;44912;52.754;5.994;2022-07-15T04:43:06;12.30;99.90
59128;DHT22;44912;52.754;5.994;2022-07-15T04:45:32;12.30;99.90
59128;DHT22;44912;52.754;5.994;2022-07-15T04:47:58;12.30;99.90
59128;DHT22;44912;52.754;5.994;2022-07-15T04:50:23;12.20;99.90
59128;DHT22;44912;52.754;5.994;2022-07-15T04:53:08;12.30;99.90
59128;DHT22;44912;52.754;5.994;2022-07-15T04:55:33;12.30;99.90
59128;DHT22;44912;52.754;5.994;2022-07-15T04:57:59;12.30;99.90
59128;DHT22;44912;52.754;5.994;2022-07-15T05:00:25;12.40;99.90
59128;DHT22;44912;52.754;5.994;2022-07-15T05:02:51;12.40;99.90
59128;DHT22;44912;52.754;5.994;2022-07-15T05:05:16;12.50;99.90
59128;DHT22;44912;52.754;5.994;2022-07-15T05:07:42;12.60;99.90
59128;DHT22;44912;52.754;5.994;2022-07-15T05:10:08;12.70;99.90
59128;DHT22;44912;52.754;5.994;2022-07-15T05:12:34;12.90;99.90
59128;DHT22;44912;52.754;5.994;2022-07-15T05:15:00;12.90;99.90
59128;DHT22;44912;52.754;5.994;2022-07-15T05:17:25;13.10;99.90
59128;DHT22;44912;52.754;5.994;2022-07-15T05:19:52;13.20;99.90
59128;DHT22;44912;52.754;5.994;2022-07-15T05:22:18;13.30;99.90
59128;DHT22;44912;52.754;5.994;2022-07-15T05:24:43;13.50;99.90
59128;DHT22;44912;52.754;5.994;2022-07-15T05:27:09;13.60;99.90
59128;DHT22;44912;52.754;5.994;2022-07-15T05:29:35;13.70;99.90
59128;DHT22;44912;52.754;5.994;2022-07-15T05:32:01;13.80;99.90
59128;DHT22;44912;52.754;5.994;2022-07-15T05:34:26;13.90;99.90
59128;DHT22;44912;52.754;5.994;2022-07-15T05:36:52;14.00;99.90
59128;DHT22;44912;52.754;5.994;2022-07-15T05:39:17;14.10;99.90
59128;DHT22;44912;52.754;5.994;2022-07-15T05:41:43;14.20;99.90
59128;DHT22;44912;52.754;5.994;2022-07-15T05:44:09;14.30;99.90
59128;DHT22;44912;52.754;5.994;2022-07-15T05:46:34;14.40;99.90
59128;DHT22;44912;52.754;5.994;2022-07-15T05:49:00;14.50;99.90
59128;DHT22;44912;52.754;5.994;2022-07-15T05:51:26;14.60;99.90
59128;DHT22;44912;52.754;5.994;2022-07-15T05:53:51;14.70;99.90
59128;DHT22;44912;52.754;5.994;2022-07-15T05:56:17;14.80;99.90
59128;DHT22;44912;52.754;5.994;2022-07-15T05:58:42;14.80;99.90
59128;DHT22;44912;52.754;5.994;2022-07-15T06:01:08;14.90;99.90
59128;DHT22;44912;52.754;5.994;2022-07-15T06:03:34;15.00;99.90
59128;DHT22;44912;52.754;5.994;2022-07-15T06:06:00;15.10;99.90
59128;DHT22;44912;52.754;5.994;2022-07-15T06:08:27;15.20;99.90
59128;DHT22;44912;52.754;5.994;2022-07-15T06:10:53;15.20;99.90
59128;DHT22;44912;52.754;5.994;2022-07-15T06:13:18;15.30;99.90
59128;DHT22;44912;52.754;5.994;2022-07-15T06:15:46;15.40;99.90
59128;DHT22;44912;52.754;5.994;2022-07-15T06:18:11;15.40;99.90
59128;DHT22;44912;52.754;5.994;2022-07-15T06:20:37;15.50;99.90
59128;DHT22;44912;52.754;5.994;2022-07-15T06:23:02;15.60;99.90
59128;DHT22;44912;52.754;5.994;2022-07-15T06:25:28;15.60;99.90
59128;DHT22;44912;52.754;5.994;2022-07-15T06:27:54;15.70;99.90
59128;DHT22;44912;52.754;5.994;2022-07-15T06:30:19;15.70;99.90
59128;DHT22;44912;52.754;5.994;2022-07-15T06:32:45;15.80;99.90
59128;DHT22;44912;52.754;5.994;2022-07-15T06:35:10;15.80;99.90
59128;DHT22;44912;52.754;5.994;2022-07-15T06:37:37;15.90;99.90
59128;DHT22;44912;52.754;5.994;2022-07-15T06:40:03;16.00;99.90
59128;DHT22;44912;52.754;5.994;2022-07-15T06:42:28;16.00;99.90
59128;DHT22;44912;52.754;5.994;2022-07-15T06:44:54;16.10;99.90
59128;DHT22;44912;52.754;5.994;2022-07-15T06:47:19;16.20;99.90
59128;DHT22;44912;52.754;5.994;2022-07-15T06:49:46;16.30;99.90
59128;DHT22;44912;52.754;5.994;2022-07-15T06:52:12;16.40;99.90
59128;DHT22;44912;52.754;5.994;2022-07-15T06:54:37;16.50;99.90
59128;DHT22;44912;52.754;5.994;2022-07-15T06:57:03;16.50;99.90
59128;DHT22;44912;52.754;5.994;2022-07-15T06:59:28;16.60;99.90
59128;DHT22;44912;52.754;5.994;2022-07-15T07:01:54;16.70;99.90
59128;DHT22;44912;52.754;5.994;2022-07-15T07:04:21;16.70;99.90
59128;DHT22;44912;52.754;5.994;2022-07-15T07:06:47;16.70;99.90
59128;DHT22;44912;52.754;5.994;2022-07-15T07:09:13;16.70;99.90
59128;DHT22;44912;52.754;5.994;2022-07-15T07:11:38;16.80;99.90
59128;DHT22;44912;52.754;5.994;2022-07-15T07:14:05;16.80;99.90
59128;DHT22;44912;52.754;5.994;2022-07-15T07:16:31;17.00;99.90
59128;DHT22;44912;52.754;5.994;2022-07-15T07:18:56;17.10;99.90
59128;DHT22;44912;52.754;5.994;2022-07-15T07:21:22;17.10;99.90
59128;DHT22;44912;52.754;5.994;2022-07-15T07:23:48;17.20;99.90
59128;DHT22;44912;52.754;5.994;2022-07-15T07:26:14;17.30;99.90
59128;DHT22;44912;52.754;5.994;2022-07-15T07:28:40;17.30;99.90
59128;DHT22;44912;52.754;5.994;2022-07-15T07:31:11;17.40;99.90
59128;DHT22;44912;52.754;5.994;2022-07-15T07:33:36;17.50;99.90
59128;DHT22;44912;52.754;5.994;2022-07-15T07:36:04;17.50;99.90
59128;DHT22;44912;52.754;5.994;2022-07-15T07:38:31;17.60;99.90
59128;DHT22;44912;52.754;5.994;2022-07-15T07:40:57;17.60;99.90
59128;DHT22;44912;52.754;5.994;2022-07-15T07:43:22;17.70;99.90
59128;DHT22;44912;52.754;5.994;2022-07-15T07:45:48;17.70;99.90
59128;DHT22;44912;52.754;5.994;2022-07-15T07:48:14;17.70;99.90
59128;DHT22;44912;52.754;5.994;2022-07-15T07:50:42;17.70;99.90
59128;DHT22;44912;52.754;5.994;2022-07-15T07:53:08;17.80;99.90
59128;DHT22;44912;52.754;5.994;2022-07-15T07:55:35;17.80;99.90
59128;DHT22;44912;52.754;5.994;2022-07-15T07:58:01;17.90;99.90
59128;DHT22;44912;52.754;5.994;2022-07-15T08:00:27;18.00;99.90
59128;DHT22;44912;52.754;5.994;2022-07-15T08:02:55;18.00;99.90
59128;DHT22;44912;52.754;5.994;2022-07-15T08:05:21;18.00;99.90
59128;DHT22;44912;52.754;5.994;2022-07-15T08:07:47;18.00;99.90
59128;DHT22;44912;52.754;5.994;2022-07-15T08:10:13;18.00;99.90
59128;DHT22;44912;52.754;5.994;2022-07-15T08:12:39;18.00;99.90
59128;DHT22;44912;52.754;5.994;2022-07-15T08:15:08;17.90;99.90
59128;DHT22;44912;52.754;5.994;2022-07-15T08:17:34;17.90;99.90
59128;DHT22;44912;52.754;5.994;2022-07-15T08:20:00;18.00;99.90
59128;DHT22;44912;52.754;5.994;2022-07-15T08:22:25;18.20;99.90
59128;DHT22;44912;52.754;5.994;2022-07-15T08:24:51;18.40;99.90
59128;DHT22;44912;52.754;5.994;2022-07-15T08:27:17;18.50;99.90
59128;DHT22;44912;52.754;5.994;2022-07-15T08:29:44;18.60;99.90
59128;DHT22;44912;52.754;5.994;2022-07-15T08:32:10;18.60;99.90
59128;DHT22;44912;52.754;5.994;2022-07-15T08:34:36;18.70;99.90
59128;DHT22;44912;52.754;5.994;2022-07-15T08:37:02;18.80;99.90
59128;DHT22;44912;52.754;5.994;2022-07-15T08:39:28;18.80;99.90
59128;DHT22;44912;52.754;5.994;2022-07-15T08:41:53;18.70;99.90
59128;DHT22;44912;52.754;5.994;2022-07-15T08:44:19;18.60;99.90
59128;DHT22;44912;52.754;5.994;2022-07-15T08:46:46;18.70;99.90
59128;DHT22;44912;52.754;5.994;2022-07-15T08:49:15;18.80;99.90
59128;DHT22;44912;52.754;5.994;2022-07-15T08:51:45;18.90;99.90
59128;DHT22;44912;52.754;5.994;2022-07-15T08:54:13;18.80;99.90
59128;DHT22;44912;52.754;5.994;2022-07-15T08:56:39;18.50;99.90
59128;DHT22;44912;52.754;5.994;2022-07-15T08:59:06;18.40;99.90
59128;DHT22;44912;52.754;5.994;2022-07-15T09:01:33;18.30;99.90
59128;DHT22;44912;52.754;5.994;2022-07-15T09:03:59;18.20;99.90
59128;DHT22;44912;52.754;5.994;2022-07-15T09:08:57;18.40;99.90
59128;DHT22;44912;52.754;5.994;2022-07-15T09:11:29;18.50;99.90
59128;DHT22;44912;52.754;5.994;2022-07-15T09:13:58;18.30;99.90
59128;DHT22;44912;52.754;5.994;2022-07-15T09:16:24;18.40;99.90
59128;DHT22;44912;52.754;5.994;2022-07-15T09:18:51;18.70;99.90
59128;DHT22;44912;52.754;5.994;2022-07-15T09:21:25;19.00;99.90
59128;DHT22;44912;52.754;5.994;2022-07-15T09:23:52;19.10;99.90
59128;DHT22;44912;52.754;5.994;2022-07-15T09:26:32;18.90;99.90
59128;DHT22;44912;52.754;5.994;2022-07-15T09:29:00;18.70;99.90
59128;DHT22;44912;52.754;5.994;2022-07-15T09:31:38;18.90;99.90
59128;DHT22;44912;52.754;5.994;2022-07-15T09:34:23;19.00;99.90
59128;DHT22;44912;52.754;5.994;2022-07-15T09:36:51;18.80;99.90
59128;DHT22;44912;52.754;5.994;2022-07-15T09:39:20;18.60;99.90
59128;DHT22;44912;52.754;5.994;2022-07-15T09:41:48;18.50;99.90
59128;DHT22;44912;52.754;5.994;2022-07-15T09:44:21;18.40;99.90
59128;DHT22;44912;52.754;5.994;2022-07-15T09:52:06;18.30;99.90
59128;DHT22;44912;52.754;5.994;2022-07-15T09:57:08;19.00;99.90
59128;DHT22;44912;52.754;5.994;2022-07-15T09:59:35;19.30;99.90
59128;DHT22;44912;52.754;5.994;2022-07-15T10:02:01;19.30;99.90
59128;DHT22;44912;52.754;5.994;2022-07-15T10:04:28;19.20;99.90
59128;DHT22;44912;52.754;5.994;2022-07-15T10:06:56;18.90;99.90
59128;DHT22;44912;52.754;5.994;2022-07-15T10:09:23;18.70;99.90
59128;DHT22;44912;52.754;5.994;2022-07-15T10:11:52;18.80;99.90
59128;DHT22;44912;52.754;5.994;2022-07-15T10:20:51;19.40;99.90
59128;DHT22;44912;52.754;5.994;2022-07-15T10:24:34;19.30;99.90
59128;DHT22;44912;52.754;5.994;2022-07-15T10:29:06;19.40;99.90
59128;DHT22;44912;52.754;5.994;2022-07-15T10:31:34;19.50;99.90
59128;DHT22;44912;52.754;5.994;2022-07-15T10:39:13;19.60;99.90
59128;DHT22;44912;52.754;5.994;2022-07-15T10:44:25;20.00;99.90
59128;DHT22;44912;52.754;5.994;2022-07-15T10:49:39;20.50;99.90
59128;DHT22;44912;52.754;5.994;2022-07-15T10:52:20;20.60;99.90
59128;DHT22;44912;52.754;5.994;2022-07-15T10:57:20;20.10;99.90
59128;DHT22;44912;52.754;5.994;2022-07-15T10:59:55;19.80;99.90
59128;DHT22;44912;52.754;5.994;2022-07-15T11:02:23;19.60;99.90
59128;DHT22;44912;52.754;5.994;2022-07-15T11:04:50;19.60;99.90
59128;DHT22;44912;52.754;5.994;2022-07-15T11:17:36;20.10;99.90
59128;DHT22;44912;52.754;5.994;2022-07-15T11:20:08;20.30;99.90
59128;DHT22;44912;52.754;5.994;2022-07-15T11:22:56;20.50;99.90
59128;DHT22;44912;52.754;5.994;2022-07-15T11:28:15;20.40;99.90
59128;DHT22;44912;52.754;5.994;2022-07-15T11:30:46;20.20;99.90
59128;DHT22;44912;52.754;5.994;2022-07-15T11:33:16;20.40;99.90
59128;DHT22;44912;52.754;5.994;2022-07-15T11:35:50;20.70;99.90
59128;DHT22;44912;52.754;5.994;2022-07-15T11:38:16;20.90;99.90
59128;DHT22;44912;52.754;5.994;2022-07-15T11:40:48;21.00;99.90
59128;DHT22;44912;52.754;5.994;2022-07-15T11:43:32;20.90;99.90
59128;DHT22;44912;52.754;5.994;2022-07-15T11:46:16;20.90;99.90
59128;DHT22;44912;52.754;5.994;2022-07-15T11:48:42;20.80;99.90
59128;DHT22;44912;52.754;5.994;2022-07-15T11:51:09;20.70;99.90
59128;DHT22;44912;52.754;5.994;2022-07-15T11:53:42;20.70;99.90
59128;DHT22;44912;52.754;5.994;2022-07-15T11:56:09;20.70;99.90
59128;DHT22;44912;52.754;5.994;2022-07-15T11:58:41;20.80;99.90
59128;DHT22;44912;52.754;5.994;2022-07-15T12:01:17;21.00;99.90
59128;DHT22;44912;52.754;5.994;2022-07-15T12:03:46;20.80;99.90
59128;DHT22;44912;52.754;5.994;2022-07-15T12:06:14;20.50;99.90
59128;DHT22;44912;52.754;5.994;2022-07-15T12:08:42;20.50;99.90
59128;DHT22;44912;52.754;5.994;2022-07-15T12:11:19;20.90;99.90
59128;DHT22;44912;52.754;5.994;2022-07-15T12:16:35;20.80;99.90
59128;DHT22;44912;52.754;5.994;2022-07-15T12:19:08;20.90;99.90
59128;DHT22;44912;52.754;5.994;2022-07-15T12:21:36;21.10;99.90
59128;DHT22;44912;52.754;5.994;2022-07-15T12:24:03;21.20;99.90
59128;DHT22;44912;52.754;5.994;2022-07-15T12:26:30;21.40;99.90
59128;DHT22;44912;52.754;5.994;2022-07-15T12:28:57;21.30;99.90
59128;DHT22;44912;52.754;5.994;2022-07-15T12:31:31;21.20;99.90
59128;DHT22;44912;52.754;5.994;2022-07-15T12:33:57;21.20;99.90
59128;DHT22;44912;52.754;5.994;2022-07-15T12:36:26;20.80;99.90
59128;DHT22;44912;52.754;5.994;2022-07-15T12:39:13;20.50;99.90
59128;DHT22;44912;52.754;5.994;2022-07-15T12:41:41;20.30;99.90
59128;DHT22;44912;52.754;5.994;2022-07-15T12:44:07;20.60;99.90
59128;DHT22;44912;52.754;5.994;2022-07-15T12:46:53;20.80;99.90
59128;DHT22;44912;52.754;5.994;2022-07-15T12:49:45;20.80;99.90
59128;DHT22;44912;52.754;5.994;2022-07-15T12:54:53;20.50;99.90
59128;DHT22;44912;52.754;5.994;2022-07-15T12:59:55;21.10;99.90
59128;DHT22;44912;52.754;5.994;2022-07-15T13:02:22;21.20;99.90
59128;DHT22;44912;52.754;5.994;2022-07-15T13:04:48;21.40;99.90
59128;DHT22;44912;52.754;5.994;2022-07-15T13:07:14;21.50;99.90
59128;DHT22;44912;52.754;5.994;2022-07-15T13:09:40;21.40;99.90
59128;DHT22;44912;52.754;5.994;2022-07-15T13:12:08;21.30;99.90
59128;DHT22;44912;52.754;5.994;2022-07-15T13:14:35;21.10;99.90
59128;DHT22;44912;52.754;5.994;2022-07-15T13:17:00;21.00;99.90
59128;DHT22;44912;52.754;5.994;2022-07-15T13:19:26;21.00;99.90
59128;DHT22;44912;52.754;5.994;2022-07-15T13:21:51;21.10;99.90
59128;DHT22;44912;52.754;5.994;2022-07-15T13:24:17;21.30;99.90
59128;DHT22;44912;52.754;5.994;2022-07-15T13:26:43;21.40;99.90
59128;DHT22;44912;52.754;5.994;2022-07-15T13:29:09;21.40;99.90
59128;DHT22;44912;52.754;5.994;2022-07-15T13:31:35;21.60;99.90
59128;DHT22;44912;52.754;5.994;2022-07-15T13:34:00;21.50;99.90
59128;DHT22;44912;52.754;5.994;2022-07-15T13:36:26;21.20;99.90
59128;DHT22;44912;52.754;5.994;2022-07-15T13:38:51;20.90;99.90
59128;DHT22;44912;52.754;5.994;2022-07-15T13:41:17;20.80;99.90
59128;DHT22;44912;52.754;5.994;2022-07-15T13:43:42;20.70;99.90
59128;DHT22;44912;52.754;5.994;2022-07-15T13:46:09;20.60;99.90
59128;DHT22;44912;52.754;5.994;2022-07-15T13:48:34;20.50;99.90
59128;DHT22;44912;52.754;5.994;2022-07-15T13:51:00;20.40;99.90
59128;DHT22;44912;52.754;5.994;2022-07-15T13:53:44;20.40;99.90
59128;DHT22;44912;52.754;5.994;2022-07-15T13:56:10;20.50;99.90
59128;DHT22;44912;52.754;5.994;2022-07-15T13:58:36;20.50;99.90
59128;DHT22;44912;52.754;5.994;2022-07-15T14:01:01;20.60;99.90
59128;DHT22;44912;52.754;5.994;2022-07-15T14:03:27;20.70;99.90
59128;DHT22;44912;52.754;5.994;2022-07-15T14:05:53;20.60;99.90
59128;DHT22;44912;52.754;5.994;2022-07-15T14:08:19;20.60;99.90
59128;DHT22;44912;52.754;5.994;2022-07-15T14:10:44;20.70;99.90
59128;DHT22;44912;52.754;5.994;2022-07-15T14:13:10;20.60;99.90
59128;DHT22;44912;52.754;5.994;2022-07-15T14:15:36;20.70;99.90
59128;DHT22;44912;52.754;5.994;2022-07-15T14:18:01;20.70;99.90
59128;DHT22;44912;52.754;5.994;2022-07-15T14:20:27;20.60;99.90
59128;DHT22;44912;52.754;5.994;2022-07-15T14:22:53;20.50;99.90
59128;DHT22;44912;52.754;5.994;2022-07-15T14:25:19;20.50;99.90
59128;DHT22;44912;52.754;5.994;2022-07-15T14:27:45;20.40;99.90
59128;DHT22;44912;52.754;5.994;2022-07-15T14:30:10;20.40;99.90
59128;DHT22;44912;52.754;5.994;2022-07-15T14:32:38;20.40;99.90
59128;DHT22;44912;52.754;5.994;2022-07-15T14:35:05;20.50;99.90
59128;DHT22;44912;52.754;5.994;2022-07-15T14:37:30;20.40;99.90
59128;DHT22;44912;52.754;5.994;2022-07-15T14:39:56;20.30;99.90
59128;DHT22;44912;52.754;5.994;2022-07-15T14:42:22;20.30;99.90
59128;DHT22;44912;52.754;5.994;2022-07-15T14:44:47;20.30;99.90
59128;DHT22;44912;52.754;5.994;2022-07-15T14:47:13;20.30;99.90
59128;DHT22;44912;52.754;5.994;2022-07-15T14:49:38;20.20;99.90
59128;DHT22;44912;52.754;5.994;2022-07-15T14:52:04;20.20;99.90
59128;DHT22;44912;52.754;5.994;2022-07-15T14:54:30;20.10;99.90
59128;DHT22;44912;52.754;5.994;2022-07-15T14:56:56;20.00;99.90
59128;DHT22;44912;52.754;5.994;2022-07-15T14:59:21;20.00;99.90
59128;DHT22;44912;52.754;5.994;2022-07-15T15:01:47;20.00;99.90
59128;DHT22;44912;52.754;5.994;2022-07-15T15:04:12;20.10;99.90
59128;DHT22;44912;52.754;5.994;2022-07-15T15:06:38;20.20;99.90
59128;DHT22;44912;52.754;5.994;2022-07-15T15:09:03;20.30;99.90
59128;DHT22;44912;52.754;5.994;2022-07-15T15:11:29;20.50;99.90
59128;DHT22;44912;52.754;5.994;2022-07-15T15:13:55;20.60;99.90
59128;DHT22;44912;52.754;5.994;2022-07-15T15:16:20;20.60;99.90
59128;DHT22;44912;52.754;5.994;2022-07-15T15:18:46;20.50;99.90
59128;DHT22;44912;52.754;5.994;2022-07-15T15:21:11;20.30;99.90
59128;DHT22;44912;52.754;5.994;2022-07-15T15:23:37;20.20;99.90
59128;DHT22;44912;52.754;5.994;2022-07-15T15:26:03;20.10;99.90
59128;DHT22;44912;52.754;5.994;2022-07-15T15:28:48;20.00;99.90
59128;DHT22;44912;52.754;5.994;2022-07-15T15:31:14;19.80;99.90
59128;DHT22;44912;52.754;5.994;2022-07-15T15:33:39;19.80;99.90
59128;DHT22;44912;52.754;5.994;2022-07-15T15:36:05;19.80;99.90
59128;DHT22;44912;52.754;5.994;2022-07-15T15:38:30;19.80;99.90
59128;DHT22;44912;52.754;5.994;2022-07-15T15:40:56;19.80;99.90
59128;DHT22;44912;52.754;5.994;2022-07-15T15:43:22;19.80;99.90
59128;DHT22;44912;52.754;5.994;2022-07-15T15:45:48;19.80;99.90
59128;DHT22;44912;52.754;5.994;2022-07-15T15:48:14;19.80;99.90
59128;DHT22;44912;52.754;5.994;2022-07-15T15:50:39;19.80;99.90
59128;DHT22;44912;52.754;5.994;2022-07-15T15:53:05;19.80;99.90
59128;DHT22;44912;52.754;5.994;2022-07-15T15:55:30;19.80;99.90
59128;DHT22;44912;52.754;5.994;2022-07-15T15:57:56;19.80;99.90
59128;DHT22;44912;52.754;5.994;2022-07-15T16:00:21;19.80;99.90
59128;DHT22;44912;52.754;5.994;2022-07-15T16:02:47;19.80;99.90
59128;DHT22;44912;52.754;5.994;2022-07-15T16:05:13;19.80;99.90
59128;DHT22;44912;52.754;5.994;2022-07-15T16:07:39;19.90;99.90
59128;DHT22;44912;52.754;5.994;2022-07-15T16:10:06;20.20;99.90
59128;DHT22;44912;52.754;5.994;2022-07-15T16:12:31;20.50;99.90
59128;DHT22;44912;52.754;5.994;2022-07-15T16:14:57;20.80;99.90
59128;DHT22;44912;52.754;5.994;2022-07-15T16:17:23;20.90;99.90
59128;DHT22;44912;52.754;5.994;2022-07-15T16:19:48;20.80;99.90
59128;DHT22;44912;52.754;5.994;2022-07-15T16:22:14;20.70;99.90
59128;DHT22;44912;52.754;5.994;2022-07-15T16:24:58;20.80;99.90